Time;durP1;ratioP1;P1;durP2;ratioP2;P2;SDS_P1;SDS_P2;PMS_P1;PMS_P2;Temp;Humidity;BMP_temperature;BMP_pressure;BME280_temperature;BME280_humidity;BME280_pressure;Samples;Min_cycle;Max_cycle;Signal;HPM_P1;HPM_P2
2022/05/13 10:53:36;;;;;;;1.29;0.30;;;;;;;22.11;30.84;99857.97;374967;142;883041;-60
2022/05/13 10:54:50;;;;;;;2.11;0.40;;;;;;;21.87;30.37;99854.03;365955;147;857380;-62
2022/05/13 10:56:02;;;;;;;1.46;0.47;;;;;;;22.15;31.08;99851.58;365971;147;857275;-63
2022/05/13 10:57:12;;;;;;;1.84;0.51;;;;;;;;;;364782;147;859912;-64
2022/05/13 10:58:35;;;;;;;1.01;0.48;;;;;;;22.16;29.04;99837.46;361602;148;858090;-64
2022/05/13 11:05:07;;;;;;;6.03;1.09;;;;;;;22.58;28.96;99841.20;374981;142;878288;-61
2022/05/13 11:06:21;;;;;;;5.62;0.53;;;;;;;22.36;29.98;99840.75;366039;147;858267;-61
2022/05/13 11:07:30;;;;;;;2.93;0.65;;;;;;;22.29;30.03;99837.61;365977;147;859454;-61
2022/05/13 11:08:41;;;;;;;2.02;0.57;;;;;;;22.33;29.22;99837.35;365931;147;859189;-61
2022/05/13 11:10:06;;;;;;;1.83;0.58;;;;;;;22.41;29.51;99834.24;366012;147;857537;-61
2022/05/13 11:11:15;;;;;;;1.54;0.82;;;;;;;22.22;29.46;99838.91;365816;147;857329;-59
2022/05/13 11:12:46;;;;;;;3.71;0.71;;;;;;;22.18;28.92;99831.17;365968;147;857396;-61
2022/05/13 11:14:04;;;;;;;1.77;0.64;;;;;;;22.30;28.58;99826.12;366034;147;857400;-61
2022/05/13 11:15:31;;;;;;;2.26;0.47;;;;;;;22.39;29.27;99830.84;365947;147;857465;-60
2022/05/13 11:16:55;;;;;;;1.44;0.41;;;;;;;22.55;29.50;99817.64;359351;150;858898;-60
2022/05/13 11:18:01;;;;;;;9.05;0.77;;;;;;;23.09;29.54;99812.65;359320;150;858248;-59
2022/05/13 11:19:09;;;;;;;3.29;0.69;;;;;;;22.87;28.09;99819.27;359164;150;857863;-61
2022/05/13 11:20:15;;;;;;;1.89;0.62;;;;;;;22.87;29.04;99816.63;345391;155;859000;-61
2022/05/13 11:21:24;;;;;;;1.82;0.50;;;;;;;23.04;28.85;99818.20;359382;150;858695;-62
2022/05/13 11:22:35;;;;;;;2.04;0.53;;;;;;;23.30;28.96;99824.53;362725;147;857452;-61
2022/05/13 11:25:57;;;;;;;1.82;0.44;;;;;;;23.44;27.06;99815.74;358650;150;857268;-62
2022/05/13 11:27:09;;;;;;;2.71;0.81;;;;;;;23.27;27.23;99806.23;353131;152;857310;-62
2022/05/13 11:28:34;;;;;;;1.62;0.51;;;;;;;23.44;28.14;99807.81;356315;148;857303;-62
2022/05/13 11:29:43;;;;;;;0.94;0.52;;;;;;;23.59;27.57;99805.96;359405;148;857389;-61
2022/05/13 11:31:10;;;;;;;3.63;0.53;;;;;;;23.72;28.36;99806.02;359119;150;857448;-62
2022/05/13 11:32:22;;;;;;;0.89;0.49;;;;;;;23.82;27.41;99790.39;345305;154;857421;-60
2022/05/13 11:34:51;;;;;;;2.18;0.46;;;;;;;23.69;27.18;99805.36;349369;153;856641;-60
2022/05/13 11:36:15;;;;;;;2.29;0.50;;;;;;;23.63;27.47;99806.62;349243;152;859591;-60
2022/05/13 11:37:17;;;;;;;2.83;0.63;;;;;;;23.50;26.85;99822.41;352510;152;857325;-59
2022/05/13 11:38:22;;;;;;;4.07;0.52;;;;;;;23.35;27.50;99800.48;349769;154;857189;-59
2022/05/13 11:39:54;;;;;;;3.53;0.50;;;;;;;23.47;28.37;99802.33;346064;155;857280;-59
2022/05/13 11:41:08;;;;;;;0.89;0.57;;;;;;;23.70;27.60;99799.98;346755;155;857283;-59
2022/05/13 11:42:19;;;;;;;2.28;0.47;;;;;;;23.73;27.74;99791.00;346718;152;857381;-62
2022/05/13 11:43:45;;;;;;;2.52;0.59;;;;;;;23.98;26.90;99781.47;352848;152;857373;-63
2022/05/13 11:44:51;;;;;;;2.87;0.54;;;;;;;24.44;26.76;99788.12;352828;152;857987;-62
2022/05/13 11:46:29;;;;;;;1.11;0.42;;;;;;;24.37;25.78;99787.67;350156;152;857928;-64
2022/05/13 11:47:40;;;;;;;1.68;0.49;;;;;;;24.26;25.87;99785.75;338987;159;857846;-62
2022/05/13 11:48:47;;;;;;;5.58;0.71;;;;;;;25.64;26.48;99788.56;347262;152;857574;-64
2022/05/13 11:49:48;;;;;;;2.67;0.66;;;;;;;26.81;23.00;99788.63;352830;152;857368;-63
2022/05/13 11:50:50;;;;;;;6.51;0.71;;;;;;;26.87;22.97;99795.28;353167;152;858616;-63
2022/05/13 11:51:53;;;;;;;1.97;0.68;;;;;;;27.66;23.42;99786.36;353032;152;857405;-64
2022/05/13 11:52:55;;;;;;;1.44;0.71;;;;;;;28.15;22.38;99802.73;352976;152;858444;-63
2022/05/13 11:54:04;;;;;;;3.29;0.49;;;;;;;27.88;20.90;99792.55;352962;152;860328;-63
2022/05/13 11:55:18;;;;;;;2.19;0.59;;;;;;;27.94;20.23;99792.87;352923;152;858094;-64
2022/05/13 11:56:29;;;;;;;2.79;0.54;;;;;;;28.49;21.25;99793.67;352813;152;859430;-62
2022/05/13 11:57:42;;;;;;;1.98;0.47;;;;;;;29.86;21.45;99793.23;352969;152;857945;-61
2022/05/13 11:59:04;;;;;;;2.42;0.68;;;;;;;30.03;20.12;99783.71;352933;152;857982;-63
2022/05/13 12:00:34;;;;;;;2.44;0.51;;;;;;;30.00;20.32;99786.66;352938;152;858965;-61
2022/05/13 12:01:45;;;;;;;2.25;0.59;;;;;;;30.59;19.27;99790.07;352957;152;859001;-64
2022/05/13 12:02:53;;;;;;;4.00;0.46;;;;;;;29.85;19.46;99794.22;351816;152;857375;-64
2022/05/13 12:04:17;;;;;;;1.22;0.49;;;;;;;29.13;19.87;99783.73;348286;152;857892;-61
2022/05/13 12:05:23;;;;;;;2.83;0.67;;;;;;;28.22;20.61;99787.94;352443;152;859798;-62
2022/05/13 12:06:27;;;;;;;3.17;0.45;;;;;;;26.76;21.58;99788.97;352508;152;857878;-63
2022/05/13 12:07:39;;;;;;;2.84;0.54;;;;;;;26.09;22.29;99795.85;352441;152;859854;-63
2022/05/13 12:08:44;;;;;;;1.31;0.48;;;;;;;26.14;23.22;99787.53;351043;151;865023;-62
2022/05/13 12:09:47;;;;;;;4.58;0.48;;;;;;;26.58;22.50;99783.31;352158;152;857490;-65
2022/05/13 12:11:05;;;;;;;1.39;0.42;;;;;;;27.32;22.74;99787.27;352895;152;865728;-63
2022/05/13 12:12:26;;;;;;;1.17;0.49;;;;;;;28.52;22.91;99788.94;352853;152;857265;-64
2022/05/13 12:13:56;;;;;;;1.28;0.52;;;;;;;29.84;20.34;99781.86;352435;152;857894;-64
2022/05/13 12:15:35;;;;;;;3.69;0.54;;;;;;;30.87;19.51;99783.91;352623;152;857846;-63
2022/05/13 12:16:55;;;;;;;3.09;0.57;;;;;;;30.27;18.65;99769.91;351938;153;857339;-63
2022/05/13 12:18:02;;;;;;;;;;;;;;;29.66;19.56;99768.38;347140;156;857207;-64
2022/05/13 12:19:19;;;;;;;3.33;0.64;;;;;;;29.70;19.71;99761.80;352668;150;858665;-64
2022/05/13 12:20:55;;;;;;;2.55;0.66;;;;;;;29.67;19.09;99768.25;355151;150;857320;-62
2022/05/13 12:22:25;;;;;;;1.61;0.64;;;;;;;29.46;19.88;99763.03;357351;150;857370;-62
2022/05/13 12:23:46;;;;;;;2.46;0.65;;;;;;;30.14;19.83;99762.19;357216;150;858369;-64
2022/05/13 12:25:01;;;;;;;4.17;0.45;;;;;;;30.34;17.84;99758.64;357285;150;859132;-62
2022/05/13 12:26:08;;;;;;;2.04;0.57;;;;;;;29.67;18.66;99756.72;355861;150;858870;-63
2022/05/13 12:27:11;;;;;;;4.73;0.67;;;;;;;28.09;20.02;99757.95;355675;151;857407;-61
2022/05/13 12:28:19;;;;;;;2.54;0.49;;;;;;;26.82;21.59;99751.30;353993;151;858920;-63
2022/05/13 12:29:34;;;;;;;3.29;0.58;;;;;;;26.22;22.23;99769.25;352740;152;857940;-62
2022/05/13 12:30:40;;;;;;;2.66;0.74;;;;;;;25.56;23.19;99767.91;352794;152;857416;-63
2022/05/13 12:31:48;;;;;;;1.19;0.50;;;;;;;25.33;23.28;99757.17;352751;152;859540;-62
2022/05/13 12:32:50;;;;;;;3.02;0.60;;;;;;;25.37;23.81;99760.42;352767;152;860222;-63
2022/05/13 12:38:21;;;;;;;3.20;0.76;;;;;;;27.25;20.99;99757.67;353066;152;857416;-63
2022/05/13 12:39:23;;;;;;;1.84;0.66;;;;;;;27.44;21.37;99736.73;353773;152;857400;-62
2022/05/13 12:40:31;;;;;;;4.76;0.72;;;;;;;27.15;21.82;99742.62;339990;158;865450;-62
2022/05/13 12:41:52;;;;;;;2.11;0.84;;;;;;;27.79;21.23;99741.81;341663;152;859094;-62
2022/05/13 12:43:00;;;;;;;3.27;0.76;;;;;;;28.16;20.65;99739.69;353562;152;857401;-63
2022/05/13 12:44:10;;;;;;;4.43;0.68;;;;;;;29.00;21.07;99743.98;353556;152;860887;-64
2022/05/13 12:45:36;;;;;;;1.48;0.69;;;;;;;29.72;19.81;99738.49;353633;152;857260;-62
2022/05/13 12:46:46;;;;;;;4.21;0.60;;;;;;;29.18;19.27;99746.84;338998;159;857337;-62
2022/05/13 12:48:08;;;;;;;3.58;0.53;;;;;;;28.35;20.66;99736.30;353111;152;858949;-63
2022/05/13 12:49:18;;;;;;;2.54;0.57;;;;;;;28.28;20.83;99730.65;353578;152;857465;-63
2022/05/13 12:50:39;;;;;;;3.96;0.65;;;;;;;28.37;20.74;99732.52;352428;152;857413;-62
2022/05/13 12:52:07;;;;;;;3.20;0.62;;;;;;;28.25;20.32;99737.09;352868;152;866076;-62
2022/05/13 12:53:32;;;;;;;4.74;0.80;;;;;;;27.95;21.03;99727.21;346759;152;857297;-62
2022/05/13 12:54:38;;;;;;;1.81;0.52;;;;;;;28.54;20.90;99731.06;352890;152;857344;-63
2022/05/13 12:55:40;;;;;;;3.74;0.59;;;;;;;28.98;20.24;99727.29;352911;152;857426;-62
2022/05/13 12:56:49;;;;;;;5.43;0.69;;;;;;;28.72;19.97;99722.42;353134;152;857427;-62
2022/05/13 12:58:01;;;;;;;0.86;0.60;;;;;;;28.52;20.46;99724.16;351721;152;857242;-64
2022/05/13 12:59:16;;;;;;;4.48;0.61;;;;;;;28.61;20.19;99726.02;343410;155;858684;-63
2022/05/13 13:00:22;;;;;;;2.46;0.66;;;;;;;29.27;20.33;99719.34;351049;153;857303;-62
2022/05/13 13:01:24;;;;;;;5.00;0.64;;;;;;;30.08;18.59;99713.86;345967;155;859716;-60
2022/05/13 13:02:28;;;;;;;2.88;0.67;;;;;;;;;;338969;158;865315;-62
2022/05/13 13:03:30;;;;;;;2.09;0.60;;;;;;;;;;346231;152;858560;-61
2022/05/13 13:04:33;;;;;;;2.25;0.65;;;;;;;;;;347115;155;857154;-62
2022/05/13 13:05:35;;;;;;;2.83;0.69;;;;;;;;;;356094;149;859697;-62
2022/05/13 13:06:46;;;;;;;4.66;1.09;;;;;;;;;;353814;152;866208;-62
2022/05/13 13:07:48;;;;;;;2.33;0.69;;;;;;;;;;355924;149;857374;-62
2022/05/13 13:08:51;;;;;;;1.56;0.81;;;;;;;;;;353409;152;860364;-63
2022/05/13 13:09:53;;;;;;;2.22;0.83;;;;;;;;;;353249;152;857436;-64
2022/05/13 13:10:56;;;;;;;6.77;0.84;;;;;;;;;;353802;152;865585;-63
2022/05/13 13:11:59;;;;;;;2.29;0.72;;;;;;;;;;359400;149;864689;-62
2022/05/13 13:13:06;;;;;;;1.53;0.64;;;;;;;;;;359966;149;859322;-62
2022/05/13 13:14:12;;;;;;;1.48;0.58;;;;;;;;;;360052;149;857295;-62
2022/05/13 13:15:19;;;;;;;0.78;0.55;;;;;;;;;;364490;147;857900;-62
2022/05/13 13:16:26;;;;;;;3.39;0.55;;;;;;;;;;360408;147;857513;-62
2022/05/13 13:17:28;;;;;;;4.36;0.83;;;;;;;;;;360032;149;859642;-63
2022/05/13 13:18:30;;;;;;;1.86;0.77;;;;;;;;;;360168;149;858201;-62
2022/05/13 13:19:32;;;;;;;3.13;0.89;;;;;;;;;;360284;149;857728;-62
2022/05/13 13:20:35;;;;;;;1.81;0.58;;;;;;;;;;360202;149;858490;-63
2022/05/13 13:21:37;;;;;;;5.53;0.77;;;;;;;;;;359318;149;857423;-62
2022/05/13 13:22:41;;;;;;;4.78;0.73;;;;;;;;;;360206;149;859401;-63
2022/05/13 13:23:43;;;;;;;2.22;0.64;;;;;;;;;;359823;149;859494;-62
2022/05/13 13:24:44;;;;;;;3.35;0.65;;;;;;;;;;360250;149;857506;-62
2022/05/13 13:25:46;;;;;;;3.80;0.70;;;;;;;;;;358640;147;858480;-61
2022/05/13 13:26:48;;;;;;;2.25;0.55;;;;;;;;;;360230;147;857406;-61
2022/05/13 13:27:52;;;;;;;1.42;0.61;;;;;;;;;;360287;149;857432;-61
2022/05/13 13:28:53;;;;;;;2.29;0.64;;;;;;;;;;360132;149;859565;-62
2022/05/13 13:29:55;;;;;;;2.74;0.94;;;;;;;;;;360230;149;857339;-65
2022/05/13 13:30:57;;;;;;;1.73;0.44;;;;;;;;;;353383;152;857896;-62
2022/05/13 13:31:59;;;;;;;3.91;0.54;;;;;;;;;;352356;152;857526;-62
2022/05/13 13:33:02;;;;;;;1.90;0.64;;;;;;;;;;353779;152;858958;-63
2022/05/13 13:34:04;;;;;;;6.71;1.02;;;;;;;;;;357226;149;859141;-63
2022/05/13 13:35:06;;;;;;;3.34;0.86;;;;;;;;;;356427;149;857357;-62
2022/05/13 13:36:12;;;;;;;2.48;0.60;;;;;;;;;;349411;152;857812;-62
2022/05/13 13:37:14;;;;;;;3.37;0.74;;;;;;;;;;349777;150;858414;-62
2022/05/13 13:38:16;;;;;;;3.91;0.64;;;;;;;;;;355136;150;860061;-63
2022/05/13 13:39:18;;;;;;;1.89;0.51;;;;;;;;;;354682;152;857951;-62
2022/05/13 13:40:21;;;;;;;4.91;0.78;;;;;;;;;;354690;152;857322;-62
2022/05/13 13:41:27;;;;;;;0.71;0.54;;;;;;;;;;354477;152;863105;-64
2022/05/13 13:42:30;;;;;;;4.13;0.78;;;;;;;;;;354512;152;856543;-62
2022/05/13 13:43:34;;;;;;;1.24;0.59;;;;;;;;;;354328;152;859453;-61
2022/05/13 13:44:35;;;;;;;5.72;0.58;;;;;;;;;;354441;152;860525;-63
2022/05/13 13:45:37;;;;;;;2.29;0.86;;;;;;;;;;353139;152;857784;-63
2022/05/13 13:46:42;;;;;;;1.57;0.74;;;;;;;;;;354464;152;864961;-63
2022/05/13 13:47:45;;;;;;;3.14;0.68;;;;;;;;;;354324;152;866787;-62
2022/05/13 13:48:49;;;;;;;2.72;0.59;;;;;;;;;;356549;149;857344;-62
2022/05/13 13:49:51;;;;;;;1.98;0.63;;;;;;;;;;358117;149;866661;-62
2022/05/13 13:50:53;;;;;;;2.06;0.61;;;;;;;;;;350460;152;857319;-63
2022/05/13 13:51:56;;;;;;;3.29;0.71;;;;;;;;;;350809;152;864886;-64
2022/05/13 13:52:58;;;;;;;3.46;0.51;;;;;;;;;;353844;152;857829;-63
2022/05/13 13:54:01;;;;;;;2.96;0.63;;;;;;;;;;354494;152;859229;-63
2022/05/13 13:55:08;;;;;;;1.89;0.71;;;;;;;;;;354457;152;857386;-62
2022/05/13 13:56:13;;;;;;;4.04;0.57;;;;;;;;;;351267;152;857364;-61
2022/05/13 13:57:26;;;;;;;2.08;0.69;;;;;;;;;;354441;152;857374;-63
2022/05/13 13:58:29;;;;;;;1.26;0.69;;;;;;;;;;348226;154;857952;-61
2022/05/13 13:59:36;;;;;;;3.08;0.74;;;;;;;;;;352086;152;857345;-64
2022/05/13 14:00:38;;;;;;;3.88;0.71;;;;;;;;;;354425;152;858024;-62
2022/05/13 14:01:45;;;;;;;5.62;1.06;;;;;;;;;;354570;152;859958;-62
2022/05/13 14:02:48;;;;;;;1.69;0.72;;;;;;;;;;353767;152;857441;-64
2022/05/13 14:03:50;;;;;;;2.07;0.68;;;;;;;;;;354384;152;857672;-64
2022/05/13 14:04:51;;;;;;;5.49;0.78;;;;;;;;;;352189;152;859103;-62
2022/05/13 14:05:54;;;;;;;3.21;0.70;;;;;;;;;;354530;152;861593;-64
2022/05/13 14:06:57;;;;;;;2.97;0.89;;;;;;;;;;354400;152;866327;-65
2022/05/13 14:07:58;;;;;;;4.22;0.80;;;;;;;;;;352057;152;865690;-64
2022/05/13 14:09:00;;;;;;;9.91;0.81;;;;;;;;;;351320;153;859782;-62
2022/05/13 14:10:01;;;;;;;4.10;0.60;;;;;;;;;;351270;153;858247;-62
2022/05/13 14:11:04;;;;;;;2.88;0.81;;;;;;;;;;353699;150;857307;-63
2022/05/13 14:12:07;;;;;;;2.49;0.77;;;;;;;;;;357613;150;857287;-64
2022/05/13 14:13:10;;;;;;;5.05;0.99;;;;;;;;;;357576;150;857786;-62
2022/05/13 14:14:11;;;;;;;2.25;0.71;;;;;;;;;;357625;150;857553;-63
2022/05/13 14:15:13;;;;;;;5.65;1.04;;;;;;;;;;357658;150;858669;-62
2022/05/13 14:16:30;;;;;;;2.65;0.66;;;;;;;;;;352585;150;857398;-62
2022/05/13 14:17:32;;;;;;;3.61;0.78;;;;;;;;;;351135;153;857358;-63
2022/05/13 14:18:34;;;;;;;1.98;0.67;;;;;;;;;;351438;153;858447;-62
2022/05/13 14:19:36;;;;;;;3.35;0.81;;;;;;;;;;351519;153;857565;-63
2022/05/13 14:20:38;;;;;;;3.01;1.11;;;;;;;;;;351352;153;857443;-63
2022/05/13 14:21:47;;;;;;;6.06;0.94;;;;;;;;;;351405;153;864791;-62
2022/05/13 14:22:55;;;;;;;2.79;0.91;;;;;;;;;;352155;152;857481;-63
2022/05/13 14:23:59;;;;;;;4.96;0.92;;;;;;;;;;353230;152;860463;-62
2022/05/13 14:25:01;;;;;;;2.81;0.78;;;;;;;;;;353325;152;859067;-62
2022/05/13 14:26:03;;;;;;;4.03;0.97;;;;;;;;;;349524;152;857330;-62
2022/05/13 14:27:15;;;;;;;5.58;0.69;;;;;;;;;;349026;154;865425;-62
2022/05/13 14:28:17;;;;;;;4.94;0.94;;;;;;;;;;352571;152;858724;-62
2022/05/13 14:29:19;;;;;;;3.40;1.01;;;;;;;;;;354524;152;858541;-63
2022/05/13 14:30:20;;;;;;;1.95;0.70;;;;;;;;;;354539;152;857398;-62
2022/05/13 14:31:23;;;;;;;3.36;0.83;;;;;;;;;;354513;152;857332;-63
2022/05/13 14:32:26;;;;;;;1.88;0.78;;;;;;;;;;354349;152;867088;-61
2022/05/13 14:33:28;;;;;;;2.21;0.83;;;;;;;;;;354050;152;857347;-63
2022/05/13 14:34:30;;;;;;;2.19;0.75;;;;;;;;;;354497;152;858730;-63
2022/05/13 14:35:32;;;;;;;7.82;0.99;;;;;;;;;;356964;150;857294;-62
2022/05/13 14:36:37;;;;;;;2.12;0.85;;;;;;;;;;358551;150;857239;-62
2022/05/13 14:37:40;;;;;;;2.11;0.66;;;;;;;;;;358212;150;857632;-63
2022/05/13 14:40:13;;;;;;;10.10;1.34;;;;;;;;;;359360;150;865025;-62
2022/05/13 14:41:15;;;;;;;2.09;0.88;;;;;;;;;;359433;150;858725;-62
2022/05/13 14:42:31;;;;;;;4.74;0.69;;;;;;;;;;356062;150;858149;-62
2022/05/13 14:43:33;;;;;;;2.98;0.70;;;;;;;;;;358728;150;866451;-63
2022/05/13 14:44:36;;;;;;;0.68;0.40;;;;;;;;;;359469;150;857354;-61
2022/05/13 14:45:39;;;;;;;3.13;0.80;;;;;;;;;;359401;147;860694;-62
2022/05/13 14:46:41;;;;;;;6.35;0.87;;;;;;;;;;359477;150;857917;-62
2022/05/13 14:47:44;;;;;;;1.25;0.71;;;;;;;;;;358112;150;866789;-63
2022/05/13 14:48:45;;;;;;;5.17;0.94;;;;;;;;;;359579;150;857392;-63
2022/05/13 14:49:50;;;;;;;4.11;1.02;;;;;;;;;;359500;150;857292;-62
2022/05/13 14:51:10;;;;;;;8.22;1.16;;;;;;;;;;359363;150;857311;-62
2022/05/13 14:52:11;;;;;;;;;;;;;;;;;;362203;149;858362;-63
2022/05/13 14:53:15;;;;;;;4.56;0.88;;;;;;;;;;359641;150;857560;-63
2022/05/13 14:54:16;;;;;;;5.01;0.83;;;;;;;;;;359505;149;857522;-62
2022/05/13 14:55:37;;;;;;;4.26;0.90;;;;;;;;;;358835;150;857424;-62
2022/05/13 14:56:44;;;;;;;3.07;0.83;;;;;;;;;;354811;151;858312;-62
2022/05/13 14:57:45;;;;;;;5.60;0.94;;;;;;;;;;353971;150;859108;-62
2022/05/13 14:58:53;;;;;;;2.36;0.74;;;;;;;;;;358727;150;857207;-63
2022/05/13 14:59:58;;;;;;;1.99;0.86;;;;;;;;;;358845;150;858481;-62
2022/05/13 15:01:08;;;;;;;6.35;0.94;;;;;;;;;;359299;150;859063;-62
2022/05/13 15:02:12;;;;;;;4.90;0.72;;;;;;;;;;358828;150;857349;-62
2022/05/13 15:03:13;;;;;;;2.87;0.67;;;;;;;;;;359268;148;857345;-63
2022/05/13 15:04:16;;;;;;;3.44;0.78;;;;;;;;;;357926;150;857389;-63
2022/05/13 15:05:19;;;;;;;2.64;0.97;;;;;;;;;;357417;150;865181;-63
2022/05/13 15:06:29;;;;;;;3.15;0.93;;;;;;;;;;359278;150;865009;-63
2022/05/13 15:07:38;;;;;;;2.92;1.33;;;;;;;;;;361609;148;858119;-62
2022/05/13 15:08:53;;;;;;;4.27;0.95;;;;;;;;;;359371;148;858728;-62
2022/05/13 15:09:54;;;;;;;4.03;0.82;;;;;;;;;;359339;150;857338;-62
2022/05/13 15:10:56;;;;;;;2.26;0.84;;;;;;;;;;359490;148;858237;-64
2022/05/13 15:12:04;;;;;;;4.19;0.85;;;;;;;;;;359491;150;857345;-62
2022/05/13 15:13:05;;;;;;;5.44;0.84;;;;;;;;;;359349;150;857469;-63
2022/05/13 15:14:09;;;;;;;2.15;0.86;;;;;;;;;;359481;150;857277;-62
2022/05/13 15:15:10;;;;;;;3.44;0.88;;;;;;;;;;359463;149;857388;-64
2022/05/13 15:16:13;;;;;;;10.29;1.05;;;;;;;;;;359536;148;860560;-61
2022/05/13 15:17:14;;;;;;;4.61;0.97;;;;;;;;;;359534;149;858046;-63
2022/05/13 15:18:17;;;;;;;5.39;1.36;;;;;;;;;;359483;149;858697;-63
2022/05/13 15:19:33;;;;;;;4.21;0.95;;;;;;;;;;359573;149;857362;-62
2022/05/13 15:20:34;;;;;;;2.34;0.90;;;;;;;;;;359328;150;860481;-63
2022/05/13 15:21:36;;;;;;;2.81;0.75;;;;;;;;;;359457;150;859135;-63
2022/05/13 15:22:38;;;;;;;8.39;0.94;;;;;;;;;;359320;150;858360;-63
2022/05/13 15:23:40;;;;;;;5.43;0.99;;;;;;;;;;359402;150;857971;-62
2022/05/13 15:24:43;;;;;;;2.89;1.11;;;;;;;;;;359354;150;857389;-63
2022/05/13 15:25:46;;;;;;;5.92;1.02;;;;;;;;;;358739;148;857441;-62
2022/05/13 15:26:47;;;;;;;2.02;0.93;;;;;;;;;;359279;150;864964;-63
2022/05/13 15:27:49;;;;;;;2.70;1.00;;;;;;;;;;359269;148;866859;-62
2022/05/13 15:28:51;;;;;;;6.39;0.86;;;;;;;;;;359438;150;859010;-62
2022/05/13 15:29:52;;;;;;;5.92;1.14;;;;;;;;;;360540;148;857358;-62
2022/05/13 15:30:57;;;;;;;3.59;0.92;;;;;;;;;;362680;148;857371;-62
2022/05/13 15:31:59;;;;;;;4.10;1.04;;;;;;;;;;360811;148;857308;-63
2022/05/13 15:33:01;;;;;;;3.53;1.03;;;;;;;;;;359382;150;857248;-62
2022/05/13 15:34:03;;;;;;;7.05;0.80;;;;;;;;;;359318;150;857728;-62
2022/05/13 15:35:05;;;;;;;4.00;0.96;;;;;;;;;;359452;150;857336;-62
2022/05/13 15:36:08;;;;;;;9.78;0.87;;;;;;;;;;359019;150;859298;-61
2022/05/13 15:37:10;;;;;;;2.36;0.84;;;;;;;;;;357944;150;864684;-61
2022/05/13 15:38:11;;;;;;;7.57;0.94;;;;;;;;;;358100;150;857395;-65
2022/05/13 15:39:13;;;;;;;4.59;1.29;;;;;;;;;;359549;149;857410;-63
2022/05/13 15:40:16;;;;;;;1.13;0.76;;;;;;;;;;359324;150;865140;-62
2022/05/13 15:41:18;;;;;;;2.66;1.08;;;;;;;;;;359495;147;859660;-65
2022/05/13 15:42:20;;;;;;;3.36;1.11;;;;;;;;;;352555;151;864327;-64
2022/05/13 15:43:22;;;;;;;3.53;1.28;;;;;;;;;;352140;152;858371;-64
2022/05/13 15:44:24;;;;;;;8.34;0.89;;;;;;;;;;352112;153;865823;-63
2022/05/13 15:45:26;;;;;;;8.39;1.47;;;;;;;;;;352005;153;865014;-61
2022/05/13 15:46:29;;;;;;;3.08;0.75;;;;;;;;;;354322;152;856483;-62
2022/05/13 15:47:31;;;;;;;6.50;1.09;;;;;;;;;;353773;151;859769;-62
2022/05/13 15:48:32;;;;;;;4.23;1.15;;;;;;;;;;358679;150;859115;-62
2022/05/13 15:53:34;;;;;;;4.82;1.19;;;;;;;;;;359364;150;865342;-63
2022/05/13 15:54:35;;;;;;;3.49;1.37;;;;;;;;;;359461;150;858421;-63
2022/05/13 15:55:38;;;;;;;5.51;1.10;;;;;;;;;;359432;150;857603;-62
2022/05/13 15:56:40;;;;;;;3.17;1.36;;;;;;;;;;359455;149;857407;-63
2022/05/13 15:57:54;;;;;;;5.54;1.21;;;;;;;;;;359511;150;859117;-62
2022/05/13 15:58:56;;;;;;;2.47;0.82;;;;;;;;;;359241;150;865322;-62
2022/05/13 16:00:00;;;;;;;11.45;1.27;;;;;;;;;;358982;148;858270;-62
2022/05/13 16:01:03;;;;;;;8.55;1.24;;;;;;;;;;356403;151;857176;-62
2022/05/13 16:02:04;;;;;;;2.29;0.94;;;;;;;;;;360189;148;865281;-62
2022/05/13 16:03:06;;;;;;;4.92;0.97;;;;;;;;;;362757;148;857536;-62
2022/05/13 16:04:07;;;;;;;5.04;1.21;;;;;;;;;;360971;148;859121;-62
2022/05/13 16:05:09;;;;;;;2.47;0.80;;;;;;;;;;359410;149;859477;-62
2022/05/13 16:06:11;;;;;;;9.14;1.06;;;;;;;;;;359446;150;859085;-62
2022/05/13 16:07:12;;;;;;;3.60;0.83;;;;;;;;;;359279;150;865439;-63
2022/05/13 16:08:14;;;;;;;4.75;0.95;;;;;;;;;;359430;150;859263;-64
2022/05/13 16:09:15;;;;;;;6.77;1.39;;;;;;;;;;359395;150;866861;-61
2022/05/13 16:10:17;;;;;;;6.64;1.33;;;;;;;;;;359361;150;858504;-62
2022/05/13 16:11:20;;;;;;;5.46;1.24;;;;;;;;;;359370;150;858222;-64
2022/05/13 16:12:23;;;;;;;3.69;0.99;;;;;;;;;;359394;149;865495;-64
2022/05/13 16:13:40;;;;;;;6.18;1.38;;;;;;;;;;359251;149;860236;-64
2022/05/13 16:14:42;;;;;;;3.29;1.07;;;;;;;;;;359204;150;857513;-65
2022/05/13 16:15:45;;;;;;;3.79;0.86;;;;;;;;;;360740;148;857403;-61
2022/05/13 16:16:47;;;;;;;9.16;2.01;;;;;;;;;;359389;150;865012;-62
2022/05/13 16:17:48;;;;;;;3.77;1.19;;;;;;;;;;360530;148;858095;-62
2022/05/13 16:18:50;;;;;;;6.56;1.10;;;;;;;;;;361476;148;859313;-62
2022/05/13 16:19:51;;;;;;;2.72;1.09;;;;;;;;;;359465;150;857486;-61
2022/05/13 16:20:54;;;;;;;8.49;1.32;;;;;;;;;;359526;150;857280;-63
2022/05/13 16:21:57;;;;;;;3.31;1.12;;;;;;;;;;359507;150;866459;-64
2022/05/13 16:22:59;;;;;;;2.59;1.70;;;;;;;;;;358904;150;857344;-62
2022/05/13 16:24:00;;;;;;;4.25;1.39;;;;;;;;;;359356;150;858933;-62
2022/05/13 16:25:03;;;;;;;6.85;1.11;;;;;;;;;;359319;149;865176;-63
2022/05/13 16:26:07;;;;;;;6.02;1.72;;;;;;;;;;353493;149;864619;-63
2022/05/13 16:27:09;;;;;;;3.62;1.14;;;;;;;;;;352453;152;857333;-63
2022/05/13 16:28:11;;;;;;;5.80;1.24;;;;;;;;;;356349;150;857717;-63
2022/05/13 16:29:13;;;;;;;3.59;1.10;;;;;;;;;;359302;150;864617;-64
2022/05/13 16:30:16;;;;;;;4.91;1.28;;;;;;;;;;359360;150;857777;-64
2022/05/13 16:31:38;;;;;;;4.19;1.30;;;;;;;;;;359387;150;859313;-62
2022/05/13 16:32:40;;;;;;;6.27;1.10;;;;;;;;;;339132;158;857415;-60
2022/05/13 16:33:42;;;;;;;2.98;1.10;;;;;;;;;;339235;158;859988;-59
2022/05/13 16:34:43;;;;;;;3.63;1.08;;;;;;;;;;339445;158;857415;-60
2022/05/13 16:35:45;;;;;;;3.79;1.38;;;;;;;;;;339673;157;857447;-59
2022/05/13 16:38:07;;;;;;;;;;;;;;;;;;336148;156;863994;-60
2022/05/13 16:39:08;;;;;;;12.54;1.26;;;;;;;;;;333775;161;857679;-61
2022/05/13 16:40:15;;;;;;;6.28;1.21;;;;;;;;;;333753;161;857357;-60
2022/05/13 16:41:17;;;;;;;5.91;1.26;;;;;;;;;;327202;163;866008;-60
2022/05/13 16:42:19;;;;;;;6.35;1.72;;;;;;;;;;333693;159;859012;-60
2022/05/13 16:43:20;;;;;;;3.06;1.36;;;;;;;;;;333623;161;857369;-60
2022/05/13 16:44:22;;;;;;;4.16;1.15;;;;;;;;;;336289;159;857355;-61
2022/05/13 16:45:23;;;;;;;6.74;1.20;;;;;;;;;;336608;160;857387;-60
2022/05/13 16:46:25;;;;;;;6.11;1.53;;;;;;;;;;336618;159;864856;-60
2022/05/13 16:47:27;;;;;;;6.21;2.01;;;;;;;;;;344149;156;864919;-60
2022/05/13 16:48:28;;;;;;;3.86;1.63;;;;;;;;;;339214;156;864829;-60
2022/05/13 16:49:30;;;;;;;7.31;1.68;;;;;;;;;;336670;160;857325;-60
2022/05/13 16:50:32;;;;;;;5.63;2.03;;;;;;;;;;336674;160;857321;-60
2022/05/13 16:51:33;;;;;;;5.97;1.45;;;;;;;;;;336590;160;864739;-60
2022/05/13 16:52:35;;;;;;;4.25;1.38;;;;;;;;;;336681;160;857532;-59
2022/05/13 16:53:37;;;;;;;2.31;1.45;;;;;;;;;;339287;159;857429;-59
2022/05/13 16:54:39;;;;;;;8.68;1.33;;;;;;;;;;339199;159;866715;-59
2022/05/13 16:55:41;;;;;;;3.13;1.35;;;;;;;;;;336081;158;866666;-59
2022/05/13 16:56:44;;;;;;;3.53;1.39;;;;;;;;;;332588;161;859254;-59
2022/05/13 16:57:45;;;;;;;5.71;1.45;;;;;;;;;;339303;159;864812;-58
2022/05/13 16:58:47;;;;;;;6.44;1.25;;;;;;;;;;336752;159;858542;-59
2022/05/13 16:59:48;;;;;;;2.88;1.20;;;;;;;;;;333908;159;864757;-59
2022/05/13 17:00:51;;;;;;;9.60;1.27;;;;;;;;;;332583;162;857293;-59
2022/05/13 17:01:53;;;;;;;2.65;1.20;;;;;;;;;;332457;162;864705;-59
2022/05/13 17:03:14;;;;;;;3.01;1.32;;;;;;;;;;332744;160;856658;-59
2022/05/13 17:04:16;;;;;;;3.02;1.27;;;;;;;;;;354589;150;857350;-60
2022/05/13 17:05:17;;;;;;;11.49;1.04;;;;;;;;;;344443;156;857302;-59
2022/05/13 17:06:20;;;;;;;2.07;1.01;;;;;;;;;;351346;153;857415;-60
2022/05/13 17:07:21;;;;;;;6.98;1.40;;;;;;;;;;344413;156;858247;-59
2022/05/13 17:08:23;;;;;;;3.56;1.36;;;;;;;;;;344451;156;859489;-60
2022/05/13 17:17:10;;;;;;;6.05;1.49;;;;;;;;;;344344;156;866382;-61
2022/05/13 17:18:12;;;;;;;2.28;1.25;;;;;;;;;;344920;156;857424;-60
2022/05/13 17:19:16;;;;;;;3.74;1.44;;;;;;;;;;345005;156;857347;-60
2022/05/13 17:20:19;;;;;;;3.53;1.42;;;;;;;;;;344919;156;859042;-61
2022/05/13 17:21:21;;;;;;;4.10;1.35;;;;;;;;;;345068;156;857311;-61
2022/05/13 17:22:23;;;;;;;4.51;1.58;;;;;;;;;;345009;156;859520;-61
2022/05/13 17:23:24;;;;;;;5.00;1.29;;;;;;;;;;350390;151;864685;-61
2022/05/13 17:24:27;;;;;;;8.39;1.54;;;;;;;;;;350975;153;857339;-61
2022/05/13 17:25:28;;;;;;;3.73;1.45;;;;;;;;;;352668;150;857320;-61